Waterloo, Nebraska
Current Conditions -  °F | °C
As of 2:55 AM on Friday 24 Oct 2014 (Local Time) from KMLE Reporting Station
Clear Clear  
Wind Chill: 54°   Ceiling: Unl
Heat Index: 54°   Visibility: 10mi
Dew Point: 51°   Wind: 3mph
Humidity: 91%   Direction: 140°SE
Pressure: 29.98"   Gusts: NA
Location:  41.29°N, 96.29°W
Report Text: KMLE 240755Z AUTO 14003KT 10SM CLR 12/11 A2998 RMK AO2 T01230108
Loading
Personal Weather Stations






























Interactive Weather Map
Tropical Storm Tracking
New forecast layout! Learn more

10-Day Weather Forecast

Advertisements
Track Severe Weather on mobile